Time;durP1;ratioP1;P1;durP2;ratioP2;P2;SDS_P1;SDS_P2;PMS_P1;PMS_P2;Temp;Humidity;BMP_temperature;BMP_pressure;BME280_temperature;BME280_humidity;BME280_pressure;Samples;Min_cycle;Max_cycle;Signal;HPM_P1;HPM_P2
2023/08/11 00:00:24;;;;;;;3.38;2.30;;;16.00;99.90;;;;;;5052376;28;20213;-56
2023/08/11 00:02:51;;;;;;;3.22;2.20;;;15.90;99.90;;;;;;5052435;28;20216;-55
2023/08/11 00:05:18;;;;;;;3.45;2.25;;;15.90;99.90;;;;;;5052272;28;20685;-56
2023/08/11 00:07:45;;;;;;;4.32;2.47;;;15.80;99.90;;;;;;5052335;28;20229;-57
2023/08/11 00:10:13;;;;;;;4.15;2.67;;;15.80;99.90;;;;;;5052851;28;20233;-56
2023/08/11 00:12:41;;;;;;;4.85;2.50;;;15.80;99.90;;;;;;5052578;28;20264;-59
2023/08/11 00:15:09;;;;;;;3.80;2.20;;;15.70;99.90;;;;;;5052234;28;20221;-59
2023/08/11 00:17:36;;;;;;;4.05;2.17;;;15.60;99.90;;;;;;5051818;28;20605;-59
2023/08/11 00:20:04;;;;;;;4.00;2.40;;;15.50;99.90;;;;;;5051961;28;20213;-59
2023/08/11 00:22:32;;;;;;;5.17;2.80;;;15.60;99.90;;;;;;5052449;28;20205;-59
2023/08/11 00:24:59;;;;;;;5.13;2.37;;;15.50;99.90;;;;;;5052319;28;20212;-58
2023/08/11 00:27:27;;;;;;;5.78;2.58;;;15.40;99.90;;;;;;5052213;28;20221;-59
2023/08/11 00:29:56;;;;;;;2.63;2.43;;;15.40;99.90;;;;;;5052639;28;20210;-59
2023/08/11 00:32:23;;;;;;;3.23;2.37;;;15.40;99.90;;;;;;5052427;28;20213;-59
2023/08/11 00:34:51;;;;;;;6.07;2.28;;;15.40;99.90;;;;;;5051785;28;20239;-60
2023/08/11 00:37:17;;;;;;;3.83;2.50;;;15.30;99.90;;;;;;5051290;28;20212;-59
2023/08/11 00:39:45;;;;;;;2.33;2.07;;;15.30;99.90;;;;;;5053000;28;20205;-57
2023/08/11 00:42:12;;;;;;;3.63;2.50;;;15.30;99.90;;;;;;5052162;28;20244;-56
2023/08/11 00:44:39;;;;;;;3.55;2.40;;;15.40;99.90;;;;;;5052427;28;20301;-54
2023/08/11 00:47:07;;;;;;;5.40;2.37;;;15.40;99.90;;;;;;5051318;28;20217;-55
2023/08/11 00:49:34;;;;;;;3.90;2.30;;;15.30;99.90;;;;;;5051751;28;20229;-55
2023/08/11 00:52:01;;;;;;;2.57;2.37;;;15.40;99.90;;;;;;5051706;28;20211;-55
2023/08/11 00:54:30;;;;;;;2.90;2.22;;;15.40;99.90;;;;;;5052092;28;20206;-55
2023/08/11 00:56:57;;;;;;;3.00;2.50;;;15.40;99.90;;;;;;5051635;28;20259;-55
2023/08/11 00:59:24;;;;;;;2.83;2.27;;;15.40;99.90;;;;;;5051973;28;20276;-57
2023/08/11 01:01:51;;;;;;;2.60;2.40;;;15.30;99.90;;;;;;5051480;28;20221;-58
2023/08/11 01:04:19;;;;;;;2.80;2.53;;;15.30;99.90;;;;;;5051098;28;20232;-55
2023/08/11 01:06:47;;;;;;;3.50;2.60;;;15.30;99.90;;;;;;5050732;28;20669;-55
2023/08/11 01:09:22;;;;;;;3.95;2.30;;;15.20;99.90;;;;;;5051391;28;20712;-54
2023/08/11 01:12:00;;;;;;;4.43;2.60;;;15.20;99.90;;;;;;5051392;28;20217;-56
2023/08/11 01:14:35;;;;;;;2.30;2.10;;;15.10;99.90;;;;;;5051251;28;20744;-55
2023/08/11 01:17:04;;;;;;;4.03;2.37;;;15.20;99.90;;;;;;5051232;28;20205;-58
2023/08/11 01:19:35;;;;;;;4.37;2.53;;;15.10;99.90;;;;;;5051407;28;20609;-55
2023/08/11 01:22:04;;;;;;;2.73;2.33;;;15.00;99.90;;;;;;5051719;28;20216;-55
2023/08/11 01:24:33;;;;;;;4.47;2.90;;;14.90;99.90;;;;;;5051420;28;20212;-55
2023/08/11 01:26:59;;;;;;;7.57;2.47;;;14.90;99.90;;;;;;5050685;28;20263;-55
2023/08/11 01:29:27;;;;;;;3.27;2.20;;;14.90;99.90;;;;;;5051456;28;20233;-55
2023/08/11 01:31:53;;;;;;;4.47;2.33;;;14.90;99.90;;;;;;5051299;28;20206;-56
2023/08/11 01:34:21;;;;;;;3.30;2.60;;;14.90;99.90;;;;;;5051230;28;20205;-55
2023/08/11 01:36:50;;;;;;;3.97;2.43;;;14.90;99.90;;;;;;5050901;28;20296;-55
2023/08/11 01:39:17;;;;;;;4.93;2.30;;;15.00;99.90;;;;;;5051021;28;20323;-56
2023/08/11 01:41:45;;;;;;;4.30;2.57;;;14.90;99.90;;;;;;5050824;28;20209;-55
2023/08/11 01:44:12;;;;;;;3.17;2.20;;;14.90;99.90;;;;;;5051189;28;20316;-55
2023/08/11 01:46:41;;;;;;;3.90;2.57;;;14.90;99.90;;;;;;5050867;28;20693;-55
2023/08/11 01:49:10;;;;;;;2.90;2.50;;;14.90;99.90;;;;;;5051488;28;20248;-57
2023/08/11 01:51:37;;;;;;;3.07;2.20;;;14.80;99.90;;;;;;5051158;28;20244;-56
2023/08/11 01:54:04;;;;;;;2.83;2.53;;;14.80;99.90;;;;;;5050987;28;20252;-56
2023/08/11 01:56:31;;;;;;;2.77;2.40;;;14.80;99.90;;;;;;5050745;28;20848;-56
2023/08/11 01:58:59;;;;;;;2.53;2.33;;;14.90;99.90;;;;;;5050783;28;20225;-56
2023/08/11 02:01:26;;;;;;;3.10;2.77;;;14.90;99.90;;;;;;5051570;28;20209;-56
2023/08/11 02:03:53;;;;;;;6.37;2.30;;;14.90;99.90;;;;;;5050949;28;20296;-56
2023/08/11 02:06:19;;;;;;;3.73;2.40;;;14.90;99.90;;;;;;5050420;28;20695;-59
2023/08/11 02:08:46;;;;;;;2.93;2.53;;;14.90;99.90;;;;;;5050796;28;20617;-56
2023/08/11 02:11:13;;;;;;;3.63;2.40;;;14.90;99.90;;;;;;5051226;28;20255;-56
2023/08/11 02:13:39;;;;;;;2.60;2.40;;;15.00;99.90;;;;;;5050907;28;20206;-57
2023/08/11 02:16:08;;;;;;;3.17;2.57;;;14.90;99.90;;;;;;5050798;28;20206;-56
2023/08/11 02:18:35;;;;;;;3.50;2.80;;;14.90;99.90;;;;;;5054123;28;20226;-55
2023/08/11 02:21:02;;;;;;;3.63;2.67;;;14.90;99.90;;;;;;5054021;28;20201;-55
2023/08/11 02:23:28;;;;;;;3.13;2.30;;;14.90;99.90;;;;;;5053725;28;20210;-56
2023/08/11 02:25:55;;;;;;;2.87;2.63;;;14.90;99.90;;;;;;5053406;28;20643;-55
2023/08/11 02:28:22;;;;;;;3.83;2.70;;;14.90;99.90;;;;;;5053913;28;20229;-55
2023/08/11 02:30:48;;;;;;;3.13;2.57;;;14.90;99.90;;;;;;5054796;28;20216;-56
2023/08/11 02:33:18;;;;;;;4.77;3.20;;;14.90;99.90;;;;;;5054686;28;20267;-56
2023/08/11 02:35:45;;;;;;;3.27;2.77;;;14.90;99.90;;;;;;5054262;28;20213;-57
2023/08/11 02:38:12;;;;;;;5.00;3.10;;;14.90;99.90;;;;;;5054004;28;20229;-55
2023/08/11 02:40:39;;;;;;;3.73;2.63;;;14.90;99.90;;;;;;5054037;28;20255;-57
2023/08/11 02:43:07;;;;;;;3.83;2.70;;;14.90;99.90;;;;;;5053618;28;20693;-57
2023/08/11 02:45:34;;;;;;;5.43;3.10;;;14.90;99.90;;;;;;5053777;28;20584;-56
2023/08/11 02:48:01;;;;;;;4.17;3.10;;;14.90;99.90;;;;;;5053507;28;20256;-56
2023/08/11 02:50:29;;;;;;;4.57;3.00;;;14.90;99.90;;;;;;5053707;28;20209;-56
2023/08/11 02:52:56;;;;;;;3.40;2.60;;;14.90;99.90;;;;;;5052813;28;20209;-56
2023/08/11 02:55:22;;;;;;;5.83;2.80;;;14.90;99.90;;;;;;5053356;28;20232;-56
2023/08/11 02:57:49;;;;;;;3.57;2.60;;;14.80;99.90;;;;;;5053250;28;20232;-57
2023/08/11 03:00:17;;;;;;;3.93;2.60;;;14.80;99.90;;;;;;5053391;28;20228;-56
2023/08/11 03:02:45;;;;;;;4.03;2.90;;;14.70;99.90;;;;;;5053403;28;20228;-56
2023/08/11 03:05:12;;;;;;;3.33;2.50;;;14.70;99.90;;;;;;5053127;28;20205;-56
2023/08/11 03:07:43;;;;;;;5.80;3.10;;;14.70;99.90;;;;;;5053064;28;20287;-56
2023/08/11 03:10:10;;;;;;;4.23;3.40;;;14.70;99.90;;;;;;5053050;28;20232;-57
2023/08/11 03:12:37;;;;;;;5.00;2.97;;;14.70;99.90;;;;;;5053037;28;20209;-56
2023/08/11 03:15:05;;;;;;;3.33;2.80;;;14.70;99.90;;;;;;5053175;28;20209;-56
2023/08/11 03:17:32;;;;;;;3.23;2.93;;;14.70;99.90;;;;;;5052765;28;20321;-56
2023/08/11 03:19:59;;;;;;;5.33;3.10;;;14.70;99.90;;;;;;5053288;28;20228;-57
2023/08/11 03:22:26;;;;;;;6.70;2.90;;;14.60;99.90;;;;;;5053324;28;20218;-56
2023/08/11 03:24:54;;;;;;;2.87;2.57;;;14.60;99.90;;;;;;5052793;28;20208;-56
2023/08/11 03:27:21;;;;;;;4.53;3.03;;;14.50;99.90;;;;;;5051881;28;20296;-56
2023/08/11 03:29:48;;;;;;;3.60;2.83;;;14.50;99.90;;;;;;5052387;28;20213;-57
2023/08/11 03:32:14;;;;;;;3.30;2.70;;;14.50;99.90;;;;;;5052834;28;20587;-56
2023/08/11 03:34:41;;;;;;;3.10;2.70;;;14.50;99.90;;;;;;5052608;28;20209;-56
2023/08/11 03:37:08;;;;;;;4.43;3.13;;;14.70;99.90;;;;;;5052346;28;20221;-59
2023/08/11 03:39:35;;;;;;;3.30;3.00;;;14.50;99.90;;;;;;5052471;28;20628;-56
2023/08/11 03:42:03;;;;;;;4.30;3.20;;;14.50;99.90;;;;;;5052351;28;20206;-56
2023/08/11 03:44:30;;;;;;;5.20;2.80;;;14.50;99.90;;;;;;5052204;28;20210;-56
2023/08/11 03:46:56;;;;;;;4.03;3.50;;;14.40;99.90;;;;;;5052443;28;20209;-57
2023/08/11 03:49:23;;;;;;;3.20;2.83;;;14.50;99.90;;;;;;5052217;28;20236;-56
2023/08/11 03:51:50;;;;;;;4.47;3.03;;;14.50;99.90;;;;;;5052501;28;20217;-57
2023/08/11 03:54:16;;;;;;;3.20;2.83;;;14.50;99.90;;;;;;5052578;28;20210;-58
2023/08/11 03:56:44;;;;;;;4.90;3.70;;;14.40;99.90;;;;;;5052091;28;20202;-56
2023/08/11 03:59:12;;;;;;;3.60;3.00;;;14.30;99.90;;;;;;5052189;28;20252;-58
2023/08/11 04:01:38;;;;;;;4.63;3.23;;;14.40;99.90;;;;;;5052411;28;20216;-58
2023/08/11 04:04:06;;;;;;;3.37;2.90;;;14.30;99.90;;;;;;5052362;28;20205;-57
2023/08/11 04:06:33;;;;;;;3.47;2.80;;;14.30;99.90;;;;;;5052403;28;20697;-58
2023/08/11 04:09:00;;;;;;;3.83;3.20;;;14.40;99.90;;;;;;5052877;28;20305;-57
2023/08/11 04:11:27;;;;;;;3.00;2.70;;;14.50;99.90;;;;;;5053335;28;20256;-57
2023/08/11 04:13:54;;;;;;;4.90;3.80;;;14.40;99.90;;;;;;5053556;28;20213;-56
2023/08/11 04:16:22;;;;;;;3.87;2.90;;;14.50;99.90;;;;;;5052679;28;20210;-56
2023/08/11 04:18:49;;;;;;;4.70;3.20;;;14.50;99.90;;;;;;5052134;28;20232;-59
2023/08/11 04:21:17;;;;;;;6.40;3.37;;;14.50;99.90;;;;;;5052385;28;20216;-56
2023/08/11 04:23:43;;;;;;;4.17;2.93;;;14.50;99.90;;;;;;5052027;28;20202;-57
2023/08/11 04:26:11;;;;;;;3.20;2.90;;;14.50;99.90;;;;;;5051590;28;20241;-56
2023/08/11 04:28:38;;;;;;;5.37;3.37;;;14.50;99.90;;;;;;5051747;28;20229;-56
2023/08/11 04:31:06;;;;;;;4.17;3.50;;;14.60;99.90;;;;;;5051765;28;20201;-55
2023/08/11 04:33:34;;;;;;;3.90;3.17;;;14.60;99.90;;;;;;5051749;28;20296;-56
2023/08/11 04:36:02;;;;;;;4.10;3.50;;;14.60;99.90;;;;;;5051566;28;20318;-55
2023/08/11 04:38:30;;;;;;;5.30;3.40;;;14.70;99.90;;;;;;5051443;28;20243;-56
2023/08/11 04:40:57;;;;;;;6.47;3.40;;;14.80;99.90;;;;;;5051287;28;20227;-55
2023/08/11 04:43:24;;;;;;;4.03;3.40;;;14.70;99.90;;;;;;5051393;28;20206;-56
2023/08/11 04:45:51;;;;;;;5.67;2.77;;;14.70;99.90;;;;;;5051250;28;20206;-55
2023/08/11 04:48:18;;;;;;;3.30;3.00;;;14.80;99.90;;;;;;5051351;28;20230;-56
2023/08/11 04:50:51;;;;;;;3.60;3.30;;;14.90;99.90;;;;;;5051504;28;20213;-55
2023/08/11 04:53:18;;;;;;;4.05;2.95;;;14.90;99.90;;;;;;5051414;28;20210;-55
2023/08/11 04:55:45;;;;;;;6.57;3.03;;;15.10;99.90;;;;;;5051571;28;20268;-55
2023/08/11 04:58:11;;;;;;;4.33;3.20;;;15.10;99.90;;;;;;5051356;28;20229;-55
2023/08/11 05:00:38;;;;;;;5.73;3.00;;;15.10;99.90;;;;;;5051578;28;20201;-59
2023/08/11 05:03:05;;;;;;;6.00;3.10;;;15.10;99.90;;;;;;5051106;28;20739;-55
2023/08/11 05:05:33;;;;;;;4.50;3.33;;;15.10;99.90;;;;;;5051286;28;20584;-55
2023/08/11 05:08:02;;;;;;;4.03;2.70;;;15.20;99.90;;;;;;5050702;28;20226;-58
2023/08/11 05:10:28;;;;;;;6.03;3.50;;;15.30;99.90;;;;;;5051443;28;20292;-56
2023/08/11 05:12:55;;;;;;;3.95;3.13;;;15.40;99.90;;;;;;5051401;28;20209;-56
2023/08/11 05:15:22;;;;;;;3.20;2.90;;;15.50;99.90;;;;;;5051403;28;20205;-55
2023/08/11 05:17:49;;;;;;;6.00;3.30;;;15.70;99.90;;;;;;5051042;28;20265;-56
2023/08/11 05:20:17;;;;;;;4.40;2.80;;;15.70;99.90;;;;;;5051132;28;20201;-55
2023/08/11 05:22:44;;;;;;;5.80;3.35;;;15.80;99.90;;;;;;5051406;28;20205;-55
2023/08/11 05:25:12;;;;;;;3.90;2.92;;;16.00;99.90;;;;;;5051644;28;20237;-58
2023/08/11 05:27:39;;;;;;;3.22;2.83;;;16.10;99.90;;;;;;5051007;28;20636;-55
2023/08/11 05:30:08;;;;;;;3.65;2.88;;;16.20;99.90;;;;;;5051187;28;20229;-55
2023/08/11 05:32:35;;;;;;;3.65;3.00;;;16.30;99.90;;;;;;5051187;28;20324;-55
2023/08/11 05:35:02;;;;;;;6.95;3.10;;;16.50;99.90;;;;;;5050981;28;20205;-56
2023/08/11 05:37:29;;;;;;;3.80;3.05;;;16.70;99.90;;;;;;5051270;28;20214;-56
2023/08/11 05:39:56;;;;;;;4.47;3.17;;;16.90;99.90;;;;;;5051235;28;20205;-57
2023/08/11 05:42:24;;;;;;;3.42;2.60;;;17.30;99.90;;;;;;5050980;28;20205;-56
2023/08/11 05:44:50;;;;;;;3.92;2.50;;;18.60;99.90;;;;;;5050771;28;20202;-54
2023/08/11 05:47:17;;;;;;;5.07;2.70;;;20.50;99.90;;;;;;5050350;28;20209;-57
2023/08/11 05:49:44;;;;;;;2.28;2.08;;;22.30;99.90;;;;;;5050486;28;20233;-56
2023/08/11 05:52:10;;;;;;;3.50;2.50;;;24.10;99.90;;;;;;5053038;28;20205;-55
2023/08/11 05:54:37;;;;;;;3.95;2.20;;;25.50;99.90;;;;;;5054118;28;20574;-55
2023/08/11 05:57:04;;;;;;;4.28;2.30;;;26.70;99.90;;;;;;5054166;28;20240;-55
2023/08/11 05:59:32;;;;;;;2.80;2.50;;;27.60;99.90;;;;;;5054118;28;20229;-55
2023/08/11 06:01:59;;;;;;;2.53;2.33;;;28.00;99.90;;;;;;5053894;28;20685;-56
2023/08/11 06:04:25;;;;;;;3.60;2.33;;;28.60;99.90;;;;;;5054348;28;20221;-55
2023/08/11 06:06:52;;;;;;;4.13;2.22;;;29.40;99.90;;;;;;5053876;28;20301;-56
2023/08/11 06:09:19;;;;;;;2.58;2.00;;;29.90;98.50;;;;;;5053760;28;20230;-55
2023/08/11 06:11:46;;;;;;;3.75;2.05;;;30.10;96.90;;;;;;5054023;28;20210;-55
2023/08/11 06:14:12;;;;;;;3.60;2.30;;;30.00;96.30;;;;;;5054040;28;20241;-55
2023/08/11 06:16:40;;;;;;;3.70;2.45;;;30.20;96.10;;;;;;5053751;28;20695;-56
2023/08/11 06:19:07;;;;;;;3.42;2.22;;;30.50;94.50;;;;;;5054067;28;20221;-55
2023/08/11 06:21:35;;;;;;;3.15;2.00;;;30.70;93.70;;;;;;5054184;28;20248;-58
2023/08/11 06:24:03;;;;;;;2.30;2.10;;;30.90;92.70;;;;;;5054087;28;20210;-55
2023/08/11 06:26:29;;;;;;;2.53;2.10;;;31.00;92.00;;;;;;5053925;28;20209;-57
2023/08/11 06:28:56;;;;;;;2.85;2.05;;;31.20;91.60;;;;;;5053656;28;20461;-56
2023/08/11 06:31:23;;;;;;;3.53;2.30;;;31.40;91.00;;;;;;5053729;28;20209;-55
2023/08/11 06:33:51;;;;;;;2.60;2.00;;;31.80;90.10;;;;;;5053982;28;20202;-55
2023/08/11 06:36:18;;;;;;;5.28;1.90;;;32.30;88.90;;;;;;5053692;28;20281;-56
2023/08/11 06:38:45;;;;;;;2.83;2.10;;;32.90;85.70;;;;;;5054163;28;20286;-59
2023/08/11 06:41:11;;;;;;;2.83;1.85;;;33.80;82.00;;;;;;5053691;28;20216;-60
2023/08/11 06:43:39;;;;;;;2.75;2.25;;;34.50;78.80;;;;;;5053337;28;20240;-60
2023/08/11 06:46:06;;;;;;;3.97;1.90;;;34.90;76.50;;;;;;5053034;28;20234;-60
2023/08/11 06:48:33;;;;;;;2.65;1.95;;;35.10;73.80;;;;;;5053646;28;20237;-60
2023/08/11 06:51:02;;;;;;;4.10;1.80;;;35.20;72.70;;;;;;5053382;28;20608;-59
2023/08/11 06:53:28;;;;;;;2.65;1.98;;;35.60;71.70;;;;;;5053330;28;20670;-60
2023/08/11 06:55:55;;;;;;;2.83;2.08;;;36.00;69.50;;;;;;5053137;28;20263;-58
2023/08/11 06:58:22;;;;;;;3.20;2.00;;;36.20;68.70;;;;;;5053136;28;20233;-59
2023/08/11 07:00:48;;;;;;;2.75;1.90;;;36.60;67.20;;;;;;5052999;28;20661;-59
2023/08/11 07:03:15;;;;;;;2.65;2.10;;;36.90;65.70;;;;;;5053247;28;20205;-59
2023/08/11 07:05:42;;;;;;;2.45;1.88;;;36.80;65.00;;;;;;5053180;28;20202;-59
2023/08/11 07:08:10;;;;;;;2.95;1.80;;;36.90;64.50;;;;;;5052682;28;20225;-59
2023/08/11 07:10:37;;;;;;;6.13;2.10;;;37.00;63.60;;;;;;5053110;28;20588;-59
2023/08/11 07:13:04;;;;;;;2.20;1.90;;;37.30;62.70;;;;;;5053039;28;20210;-58
2023/08/11 07:15:30;;;;;;;2.75;1.90;;;37.60;61.30;;;;;;5053063;28;20209;-60
2023/08/11 07:17:57;;;;;;;2.63;1.92;;;38.10;60.40;;;;;;5052902;28;20233;-59
2023/08/11 07:20:24;;;;;;;2.00;1.70;;;38.60;59.70;;;;;;5052759;28;20673;-59
2023/08/11 07:22:51;;;;;;;5.38;4.53;;;38.90;58.30;;;;;;5053003;28;20228;-60
2023/08/11 07:25:19;;;;;;;4.00;1.95;;;39.00;58.20;;;;;;5052689;28;20324;-58
2023/08/11 07:27:46;;;;;;;2.20;1.58;;;39.20;57.30;;;;;;5052384;28;20716;-58
2023/08/11 07:30:12;;;;;;;2.28;2.08;;;39.60;56.10;;;;;;5052636;28;20229;-60
2023/08/11 07:32:39;;;;;;;2.05;1.73;;;40.10;55.40;;;;;;5052847;28;20584;-60
2023/08/11 07:35:07;;;;;;;3.55;2.00;;;40.20;53.80;;;;;;5052878;28;20210;-59
2023/08/11 07:37:34;;;;;;;4.38;2.03;;;40.30;53.40;;;;;;5052501;28;20275;-60
2023/08/11 07:40:01;;;;;;;2.45;1.85;;;40.30;53.40;;;;;;5052540;28;20212;-60
2023/08/11 07:42:29;;;;;;;3.00;2.10;;;40.20;53.00;;;;;;5052664;28;20216;-60
2023/08/11 07:44:55;;;;;;;4.03;2.10;;;40.20;53.00;;;;;;5052319;28;20689;-60
2023/08/11 07:47:22;;;;;;;5.05;1.98;;;40.00;52.70;;;;;;5052156;28;20664;-60
2023/08/11 07:49:48;;;;;;;2.92;2.00;;;39.80;53.00;;;;;;5052681;28;20231;-60
2023/08/11 07:52:15;;;;;;;3.80;2.17;;;39.40;53.30;;;;;;5053019;28;20209;-60
2023/08/11 07:54:42;;;;;;;3.35;2.38;;;38.60;54.70;;;;;;5052230;28;20205;-61
2023/08/11 07:57:09;;;;;;;4.20;2.00;;;37.80;55.50;;;;;;5052136;28;20206;-59
2023/08/11 07:59:37;;;;;;;2.75;1.80;;;37.10;56.70;;;;;;5052085;28;20230;-59
2023/08/11 08:02:04;;;;;;;2.47;1.95;;;36.60;57.60;;;;;;5052296;28;20216;-60
2023/08/11 08:04:31;;;;;;;6.00;2.08;;;36.70;57.20;;;;;;5052518;28;20553;-59
2023/08/11 08:06:58;;;;;;;2.33;1.80;;;37.00;56.90;;;;;;5051733;28;20213;-59
2023/08/11 08:09:24;;;;;;;2.33;1.80;;;37.40;57.10;;;;;;5051940;28;20265;-59
2023/08/11 08:11:51;;;;;;;2.42;1.90;;;38.20;55.30;;;;;;5052057;28;20236;-59
2023/08/11 08:14:18;;;;;;;2.35;2.10;;;38.40;55.30;;;;;;5051297;28;20217;-59
2023/08/11 08:16:46;;;;;;;4.80;2.15;;;37.50;56.20;;;;;;5051988;28;20213;-60
2023/08/11 08:19:14;;;;;;;3.17;2.17;;;36.30;57.70;;;;;;5051711;28;20257;-59
2023/08/11 08:21:42;;;;;;;2.45;2.25;;;36.20;58.60;;;;;;5051499;28;20328;-61
2023/08/11 08:24:09;;;;;;;4.85;2.28;;;36.90;57.00;;;;;;5051965;28;20331;-59
2023/08/11 08:26:36;;;;;;;2.50;2.10;;;37.70;56.20;;;;;;5051321;28;20213;-59
2023/08/11 08:29:03;;;;;;;2.78;1.88;;;38.20;55.40;;;;;;5051569;28;20226;-59
2023/08/11 08:31:30;;;;;;;6.03;2.08;;;38.80;54.20;;;;;;5051446;28;20220;-59
2023/08/11 08:33:58;;;;;;;5.95;2.28;;;39.20;53.80;;;;;;5051583;28;20296;-60
2023/08/11 08:36:25;;;;;;;2.55;1.85;;;39.30;53.40;;;;;;5050951;28;20700;-60
2023/08/11 08:38:52;;;;;;;3.00;2.00;;;38.60;54.60;;;;;;5051513;28;20402;-59
2023/08/11 08:41:23;;;;;;;3.33;2.03;;;37.30;56.00;;;;;;5051653;28;20205;-58
2023/08/11 08:43:50;;;;;;;2.80;2.03;;;35.80;58.20;;;;;;5051662;28;20209;-59
2023/08/11 08:46:20;;;;;;;2.67;2.05;;;34.40;60.80;;;;;;5051656;28;20216;-59
2023/08/11 08:48:56;;;;;;;2.65;1.98;;;33.10;63.50;;;;;;5051382;28;20229;-59
2023/08/11 08:51:24;;;;;;;2.88;2.20;;;31.90;66.20;;;;;;5051533;28;20236;-59
2023/08/11 08:53:50;;;;;;;2.33;2.10;;;31.10;68.00;;;;;;5052747;28;20255;-58
2023/08/11 08:56:18;;;;;;;4.53;2.20;;;30.40;68.30;;;;;;5051890;28;20201;-59
2023/08/11 08:58:45;;;;;;;2.80;2.25;;;29.80;67.70;;;;;;5051966;28;20233;-60
2023/08/11 09:01:13;;;;;;;4.03;2.10;;;29.30;68.80;;;;;;5051573;28;20201;-60
2023/08/11 09:03:40;;;;;;;4.57;2.17;;;28.70;72.60;;;;;;5051259;28;20228;-60
2023/08/11 09:06:07;;;;;;;2.42;2.03;;;28.30;75.90;;;;;;5050637;28;20282;-60
2023/08/11 09:08:39;;;;;;;3.72;2.50;;;28.00;78.80;;;;;;5051059;28;20225;-60
2023/08/11 09:11:07;;;;;;;3.15;2.47;;;27.80;79.70;;;;;;5050966;28;20252;-60
2023/08/11 09:13:35;;;;;;;3.08;2.40;;;27.80;81.20;;;;;;5050850;28;20216;-62
2023/08/11 09:16:02;;;;;;;5.35;2.33;;;27.70;82.40;;;;;;5050898;28;20201;-62
2023/08/11 09:18:29;;;;;;;3.47;2.50;;;27.50;82.20;;;;;;5051039;28;20225;-60
2023/08/11 09:20:56;;;;;;;4.25;2.35;;;27.40;83.70;;;;;;5051056;28;20206;-61
2023/08/11 09:23:23;;;;;;;5.03;2.10;;;27.20;85.10;;;;;;5050867;28;20300;-60
2023/08/11 09:25:54;;;;;;;3.55;2.50;;;27.20;86.50;;;;;;5052615;28;20205;-61
2023/08/11 09:28:21;;;;;;;4.47;2.47;;;27.00;88.10;;;;;;5054780;28;20670;-62
2023/08/11 09:30:48;;;;;;;3.78;2.53;;;26.80;88.00;;;;;;5055260;28;20312;-61
2023/08/11 09:33:15;;;;;;;2.97;2.05;;;26.90;89.60;;;;;;5055026;28;20244;-61
2023/08/11 09:35:42;;;;;;;2.60;2.20;;;26.90;88.80;;;;;;5054851;28;20243;-62
2023/08/11 09:38:09;;;;;;;4.45;2.08;;;26.80;90.20;;;;;;5054664;28;20287;-63
2023/08/11 09:40:36;;;;;;;3.60;2.25;;;26.80;89.90;;;;;;5054807;28;20255;-60
2023/08/11 09:43:04;;;;;;;3.70;2.13;;;26.80;90.00;;;;;;5054747;28;20210;-62
2023/08/11 09:45:33;;;;;;;3.55;2.40;;;26.80;89.60;;;;;;5054934;28;20205;-61
2023/08/11 09:47:59;;;;;;;3.50;2.75;;;27.00;89.70;;;;;;5054331;28;20779;-60
2023/08/11 09:50:28;;;;;;;3.50;2.40;;;27.10;89.80;;;;;;5054544;28;20231;-61
2023/08/11 09:52:58;;;;;;;2.72;2.22;;;27.30;90.00;;;;;;5054777;28;20288;-62
2023/08/11 09:55:26;;;;;;;2.78;2.40;;;27.40;87.90;;;;;;5054592;28;20221;-62
2023/08/11 09:57:54;;;;;;;2.85;2.55;;;27.40;87.80;;;;;;5054510;28;20229;-61
2023/08/11 10:00:23;;;;;;;3.70;2.38;;;27.60;87.50;;;;;;5054486;28;20351;-61
2023/08/11 10:02:57;;;;;;;3.55;2.38;;;27.70;89.80;;;;;;5054661;28;20213;-61
2023/08/11 10:05:26;;;;;;;2.85;2.15;;;27.90;89.80;;;;;;5054491;28;20202;-61
2023/08/11 10:07:55;;;;;;;2.92;2.40;;;28.00;89.10;;;;;;5054210;28;20229;-61
2023/08/11 10:10:24;;;;;;;3.15;2.80;;;28.20;88.10;;;;;;5054508;28;20229;-61
2023/08/11 10:12:58;;;;;;;2.63;2.30;;;28.30;88.50;;;;;;5054442;28;20267;-61
2023/08/11 10:15:30;;;;;;;3.88;2.28;;;28.40;87.80;;;;;;5054193;28;20217;-62
2023/08/11 10:17:57;;;;;;;2.75;1.92;;;28.20;88.40;;;;;;5054612;28;20283;-61
2023/08/11 10:20:24;;;;;;;3.58;2.22;;;28.30;88.50;;;;;;5054125;28;20237;-61
2023/08/11 10:22:51;;;;;;;5.43;2.50;;;28.40;88.60;;;;;;5054410;28;20209;-61
2023/08/11 10:25:18;;;;;;;2.40;2.20;;;28.50;87.90;;;;;;5054214;28;20210;-62
2023/08/11 10:27:46;;;;;;;5.22;2.38;;;28.60;88.20;;;;;;5053537;28;20280;-62
2023/08/11 10:30:15;;;;;;;3.92;2.67;;;28.60;88.20;;;;;;5053794;28;20232;-60
2023/08/11 10:32:43;;;;;;;2.70;2.28;;;28.70;88.00;;;;;;5053961;28;20237;-62
2023/08/11 10:35:17;;;;;;;4.32;2.38;;;28.80;88.00;;;;;;5053923;28;20205;-62
2023/08/11 10:37:44;;;;;;;5.20;2.70;;;28.80;88.40;;;;;;5052818;28;20259;-62
2023/08/11 10:40:11;;;;;;;6.72;2.60;;;28.70;88.80;;;;;;5054043;28;20237;-62
2023/08/11 10:42:38;;;;;;;2.60;2.20;;;28.70;88.80;;;;;;5053889;28;20673;-62
2023/08/11 10:45:13;;;;;;;2.42;2.10;;;28.70;89.10;;;;;;5053991;28;20205;-62
2023/08/11 10:47:44;;;;;;;5.70;4.78;;;28.90;89.00;;;;;;5053192;28;20256;-62
2023/08/11 10:50:15;;;;;;;2.67;2.42;;;29.10;89.20;;;;;;5053483;28;20229;-62
2023/08/11 10:52:42;;;;;;;3.25;2.50;;;29.30;88.90;;;;;;5053853;28;20213;-62
2023/08/11 10:55:08;;;;;;;4.47;2.83;;;29.40;88.40;;;;;;5053399;28;20670;-61
2023/08/11 10:57:36;;;;;;;3.38;2.30;;;29.50;88.80;;;;;;5053197;28;20233;-60
2023/08/11 11:00:03;;;;;;;6.28;2.45;;;29.50;86.70;;;;;;5053395;28;20213;-60
2023/08/11 11:02:32;;;;;;;2.78;2.40;;;29.50;86.10;;;;;;5053815;28;20236;-60
2023/08/11 11:04:58;;;;;;;3.95;2.28;;;29.50;86.80;;;;;;5053349;28;20670;-61
2023/08/11 11:07:26;;;;;;;2.95;2.42;;;29.40;86.70;;;;;;5053089;28;20206;-61
2023/08/11 11:09:53;;;;;;;3.10;2.80;;;29.40;86.60;;;;;;5053059;28;20236;-61
2023/08/11 11:12:20;;;;;;;3.97;2.50;;;29.40;85.80;;;;;;5053019;28;20250;-62
2023/08/11 11:14:47;;;;;;;3.38;2.47;;;29.50;85.40;;;;;;5053315;28;20201;-63
2023/08/11 11:17:14;;;;;;;2.67;2.45;;;29.50;85.00;;;;;;5052827;28;20207;-60
2023/08/11 11:19:41;;;;;;;4.65;2.75;;;29.50;85.40;;;;;;5052642;28;20209;-61
2023/08/11 11:22:08;;;;;;;5.85;4.28;;;29.60;85.10;;;;;;5052527;28;20673;-61
2023/08/11 11:24:38;;;;;;;3.20;2.38;;;29.70;84.80;;;;;;5052564;28;20721;-62
2023/08/11 11:27:05;;;;;;;3.25;2.42;;;29.90;84.10;;;;;;5052552;28;20209;-61
2023/08/11 11:29:32;;;;;;;2.75;2.42;;;30.00;84.20;;;;;;5052836;28;20762;-61
2023/08/11 11:32:06;;;;;;;2.85;2.30;;;29.90;84.10;;;;;;5052812;28;20229;-64
2023/08/11 11:34:36;;;;;;;4.07;2.40;;;29.90;85.20;;;;;;5052628;28;20212;-61
2023/08/11 11:37:03;;;;;;;3.30;2.40;;;29.80;85.80;;;;;;5052623;28;20241;-61
2023/08/11 11:39:31;;;;;;;2.72;2.50;;;29.80;85.20;;;;;;5052407;28;20244;-61
2023/08/11 11:42:07;;;;;;;2.85;2.03;;;29.70;85.30;;;;;;5052674;28;20216;-61
2023/08/11 11:44:35;;;;;;;4.05;2.40;;;29.80;85.00;;;;;;5053151;28;20233;-60
2023/08/11 11:47:02;;;;;;;2.88;2.30;;;29.80;84.00;;;;;;5052303;28;20244;-61
2023/08/11 11:49:31;;;;;;;2.53;2.15;;;29.80;84.70;;;;;;5051592;28;20226;-60
2023/08/11 11:51:58;;;;;;;5.05;2.65;;;29.90;86.00;;;;;;5053074;28;20581;-61
2023/08/11 11:54:28;;;;;;;3.63;2.22;;;29.90;85.80;;;;;;5052921;28;20201;-61
2023/08/11 11:56:55;;;;;;;3.33;2.38;;;30.10;85.50;;;;;;5051953;28;20209;-61
2023/08/11 11:59:23;;;;;;;3.72;2.20;;;30.30;84.50;;;;;;5052519;28;20225;-61
2023/08/11 12:01:50;;;;;;;3.92;2.38;;;30.30;83.80;;;;;;5052247;28;20710;-61
2023/08/11 12:04:17;;;;;;;4.43;2.28;;;30.20;84.20;;;;;;5051995;28;20591;-61
2023/08/11 12:06:43;;;;;;;2.35;2.05;;;30.20;84.00;;;;;;5051684;28;20206;-61
2023/08/11 12:09:10;;;;;;;2.78;2.28;;;30.20;84.00;;;;;;5051933;28;20673;-63
2023/08/11 12:11:45;;;;;;;5.10;2.50;;;30.30;83.50;;;;;;5088674;28;20541;-61
2023/08/11 12:14:13;;;;;;;2.40;2.15;;;30.40;83.80;;;;;;5088786;28;20201;-62
2023/08/11 12:16:40;;;;;;;4.47;2.35;;;30.40;83.40;;;;;;5088458;28;20652;-61
2023/08/11 12:19:07;;;;;;;3.22;2.20;;;30.40;83.60;;;;;;5088525;28;20224;-61
2023/08/11 12:21:34;;;;;;;3.50;2.10;;;30.50;81.90;;;;;;5089121;28;20280;-62
2023/08/11 12:24:00;;;;;;;4.25;2.65;;;30.50;82.20;;;;;;5094871;22;20712;-63
2023/08/11 12:26:27;;;;;;;2.72;2.40;;;30.60;83.00;;;;;;5068688;28;20201;-64
2023/08/11 12:28:55;;;;;;;3.13;2.08;;;30.60;82.00;;;;;;5068244;28;20201;-62
2023/08/11 12:31:22;;;;;;;2.20;2.00;;;30.70;81.20;;;;;;5068141;28;20229;-61
2023/08/11 12:33:48;;;;;;;4.00;2.10;;;30.70;80.90;;;;;;5068230;28;20712;-62
2023/08/11 12:36:15;;;;;;;3.03;2.00;;;30.90;80.20;;;;;;5068314;28;20691;-63
2023/08/11 12:38:42;;;;;;;3.10;2.00;;;30.90;80.10;;;;;;5068646;28;20231;-62
2023/08/11 12:41:08;;;;;;;2.90;2.03;;;30.70;80.60;;;;;;5068709;28;20209;-63
2023/08/11 12:43:35;;;;;;;2.25;2.03;;;30.60;80.80;;;;;;5068339;28;20621;-63
2023/08/11 12:46:03;;;;;;;2.08;1.88;;;30.60;81.50;;;;;;5068106;28;20488;-63
2023/08/11 12:48:30;;;;;;;5.65;2.30;;;30.50;80.90;;;;;;5068243;28;20236;-61